sensor_id;sensor_type;location;lat;lon;timestamp;pressure;altitude;pressure_sealevel;temperature;humidity
41044;BME280;51680;49.806;18.774;2023-02-28T00:02:59;98512.25;;;1.60;66.22
41044;BME280;51680;49.806;18.774;2023-02-28T00:06:04;98506.28;;;1.58;66.29
41044;BME280;51680;49.806;18.774;2023-02-28T00:09:06;98510.63;;;1.53;66.56
41044;BME280;51680;49.806;18.774;2023-02-28T00:12:08;98520.91;;;1.51;67.01
41044;BME280;51680;49.806;18.774;2023-02-28T00:15:11;98515.03;;;1.40;67.15
41044;BME280;51680;49.806;18.774;2023-02-28T00:18:12;98522.78;;;1.36;67.67
41044;BME280;51680;49.806;18.774;2023-02-28T00:21:16;98522.84;;;1.31;67.69
41044;BME280;51680;49.806;18.774;2023-02-28T00:24:19;98515.03;;;1.40;67.23
41044;BME280;51680;49.806;18.774;2023-02-28T00:27:20;98520.19;;;1.40;67.27
41044;BME280;51680;49.806;18.774;2023-02-28T00:30:23;98514.97;;;1.46;67.67
41044;BME280;51680;49.806;18.774;2023-02-28T00:33:25;98514.88;;;1.55;67.09
41044;BME280;51680;49.806;18.774;2023-02-28T00:36:30;98518.28;;;1.57;67.02
41044;BME280;51680;49.806;18.774;2023-02-28T00:39:33;98502.03;;;1.54;67.25
41044;BME280;51680;49.806;18.774;2023-02-28T00:42:36;98508.03;;;1.54;67.68
41044;BME280;51680;49.806;18.774;2023-02-28T00:45:39;98502.03;;;1.54;67.26
41044;BME280;51680;49.806;18.774;2023-02-28T00:48:40;98498.72;;;1.44;67.79
41044;BME280;51680;49.806;18.774;2023-02-28T00:51:44;98495.09;;;1.59;67.20
41044;BME280;51680;49.806;18.774;2023-02-28T00:54:45;98492.53;;;1.60;67.12
41044;BME280;51680;49.806;18.774;2023-02-28T00:57:49;98495.09;;;1.59;67.35
41044;BME280;51680;49.806;18.774;2023-02-28T01:00:51;98490.84;;;1.58;67.02
41044;BME280;51680;49.806;18.774;2023-02-28T01:03:53;98484.00;;;1.58;67.25
41044;BME280;51680;49.806;18.774;2023-02-28T01:06:56;98494.41;;;1.43;67.67
41044;BME280;51680;49.806;18.774;2023-02-28T01:09:58;98492.06;;;1.25;68.32
41044;BME280;51680;49.806;18.774;2023-02-28T01:13:00;98489.56;;;1.16;68.53
41044;BME280;51680;49.806;18.774;2023-02-28T01:16:01;98479.44;;;0.97;69.00
41044;BME280;51680;49.806;18.774;2023-02-28T01:19:03;98480.38;;;0.91;69.13
41044;BME280;51680;49.806;18.774;2023-02-28T01:22:07;98489.75;;;0.95;68.85
41044;BME280;51680;49.806;18.774;2023-02-28T01:25:09;98495.88;;;0.77;69.62
41044;BME280;51680;49.806;18.774;2023-02-28T01:28:11;98500.25;;;0.68;70.25
41044;BME280;51680;49.806;18.774;2023-02-28T01:31:13;98501.13;;;0.66;70.14
41044;BME280;51680;49.806;18.774;2023-02-28T01:34:15;98504.59;;;0.63;69.78
41044;BME280;51680;49.806;18.774;2023-02-28T01:37:20;98501.13;;;0.64;69.92
41044;BME280;51680;49.806;18.774;2023-02-28T01:40:22;98488.28;;;0.67;69.57
41044;BME280;51680;49.806;18.774;2023-02-28T01:43:26;98487.41;;;0.70;69.67
41044;BME280;51680;49.806;18.774;2023-02-28T01:46:30;98481.41;;;0.66;69.94
41044;BME280;51680;49.806;18.774;2023-02-28T01:49:32;98477.97;;;0.70;69.67
41044;BME280;51680;49.806;18.774;2023-02-28T01:52:35;98484.03;;;0.63;70.22
41044;BME280;51680;49.806;18.774;2023-02-28T01:55:37;98484.97;;;0.52;70.96
41044;BME280;51680;49.806;18.774;2023-02-28T01:58:40;98479.84;;;0.52;70.49
41044;BME280;51680;49.806;18.774;2023-02-28T02:01:42;98482.41;;;0.52;70.72
41044;BME280;51680;49.806;18.774;2023-02-28T02:04:50;98480.66;;;0.57;70.41
41044;BME280;51680;49.806;18.774;2023-02-28T02:07:56;98468.63;;;0.62;70.22
41044;BME280;51680;49.806;18.774;2023-02-28T02:11:02;98482.41;;;0.50;70.20
41044;BME280;51680;49.806;18.774;2023-02-28T02:14:33;98478.09;;;0.52;69.67
41044;BME280;51680;49.806;18.774;2023-02-28T02:17:43;98470.44;;;0.51;69.26
41044;BME280;51680;49.806;18.774;2023-02-28T02:24:37;98466.00;;;0.68;69.37
41044;BME280;51680;49.806;18.774;2023-02-28T02:27:59;98471.81;;;0.91;68.77
41044;BME280;51680;49.806;18.774;2023-02-28T02:31:33;98464.84;;;1.03;68.69
41044;BME280;51680;49.806;18.774;2023-02-28T02:34:50;98459.63;;;1.09;68.25
41044;BME280;51680;49.806;18.774;2023-02-28T02:37:59;98463.88;;;1.10;68.50
41044;BME280;51680;49.806;18.774;2023-02-28T02:41:08;98459.63;;;1.11;68.62
41044;BME280;51680;49.806;18.774;2023-02-28T02:44:19;98462.19;;;1.12;67.90
41044;BME280;51680;49.806;18.774;2023-02-28T02:47:24;98460.47;;;1.11;67.18
41044;BME280;51680;49.806;18.774;2023-02-28T02:50:33;98470.13;;;0.83;68.05
41044;BME280;51680;49.806;18.774;2023-02-28T02:53:41;98471.72;;;1.00;67.58
41044;BME280;51680;49.806;18.774;2023-02-28T02:56:45;98475.09;;;1.05;67.35
41044;BME280;51680;49.806;18.774;2023-02-28T02:59:49;98474.22;;;1.06;67.42
41044;BME280;51680;49.806;18.774;2023-02-28T03:02:54;98475.06;;;1.08;67.48
41044;BME280;51680;49.806;18.774;2023-02-28T03:06:00;98479.44;;;1.01;67.06
41044;BME280;51680;49.806;18.774;2023-02-28T03:09:02;98464.81;;;1.05;67.02
41044;BME280;51680;49.806;18.774;2023-02-28T03:12:07;98472.63;;;0.96;67.02
41044;BME280;51680;49.806;18.774;2023-02-28T03:15:16;98474.38;;;0.89;66.26
41044;BME280;51680;49.806;18.774;2023-02-28T03:18:24;98484.00;;;0.66;65.68
41044;BME280;51680;49.806;18.774;2023-02-28T03:21:38;98494.31;;;0.58;66.25
41044;BME280;51680;49.806;18.774;2023-02-28T03:24:45;98497.81;;;0.50;66.84
41044;BME280;51680;49.806;18.774;2023-02-28T03:27:58;98500.31;;;0.59;67.02
41044;BME280;51680;49.806;18.774;2023-02-28T03:31:07;98487.50;;;0.54;66.86
41044;BME280;51680;49.806;18.774;2023-02-28T03:34:15;98492.69;;;0.48;66.66
41044;BME280;51680;49.806;18.774;2023-02-28T03:37:22;98488.34;;;0.58;66.63
41044;BME280;51680;49.806;18.774;2023-02-28T03:40:28;98491.81;;;0.49;65.65
41044;BME280;51680;49.806;18.774;2023-02-28T03:43:35;98490.00;;;0.62;65.74
41044;BME280;51680;49.806;18.774;2023-02-28T03:46:44;98495.13;;;0.67;66.09
41044;BME280;51680;49.806;18.774;2023-02-28T03:49:53;98485.75;;;0.59;63.32
41044;BME280;51680;49.806;18.774;2023-02-28T03:53:00;98486.72;;;0.42;64.20
41044;BME280;51680;49.806;18.774;2023-02-28T03:56:09;98497.00;;;0.42;65.40
41044;BME280;51680;49.806;18.774;2023-02-28T03:59:16;98495.19;;;0.56;65.29
41044;BME280;51680;49.806;18.774;2023-02-28T04:02:19;98498.63;;;0.58;65.42
41044;BME280;51680;49.806;18.774;2023-02-28T04:05:22;98509.72;;;0.62;65.52
41044;BME280;51680;49.806;18.774;2023-02-28T04:08:25;98500.28;;;0.63;65.98
41044;BME280;51680;49.806;18.774;2023-02-28T04:11:32;98507.97;;;0.63;67.46
41044;BME280;51680;49.806;18.774;2023-02-28T04:14:35;98512.41;;;0.47;69.07
41044;BME280;51680;49.806;18.774;2023-02-28T04:17:37;98503.84;;;0.43;69.19
41044;BME280;51680;49.806;18.774;2023-02-28T04:20:39;98512.41;;;0.48;69.20
41044;BME280;51680;49.806;18.774;2023-02-28T04:23:42;98517.59;;;0.39;70.58
41044;BME280;51680;49.806;18.774;2023-02-28T04:26:45;98507.38;;;0.25;71.41
41044;BME280;51680;49.806;18.774;2023-02-28T04:29:47;98532.28;;;0.04;73.08
41044;BME280;51680;49.806;18.774;2023-02-28T04:32:48;98521.28;;;-0.12;73.80
41044;BME280;51680;49.806;18.774;2023-02-28T04:35:58;98528.97;;;-0.16;74.64
41044;BME280;51680;49.806;18.774;2023-02-28T04:39:01;98516.13;;;-0.18;74.25
41044;BME280;51680;49.806;18.774;2023-02-28T04:42:04;98521.31;;;-0.27;74.86
41044;BME280;51680;49.806;18.774;2023-02-28T04:45:08;98521.34;;;-0.28;74.74
41044;BME280;51680;49.806;18.774;2023-02-28T04:48:10;98517.91;;;-0.26;74.36
41044;BME280;51680;49.806;18.774;2023-02-28T04:51:13;98522.16;;;-0.28;74.13
41044;BME280;51680;49.806;18.774;2023-02-28T04:54:17;98512.81;;;-0.33;74.70
41044;BME280;51680;49.806;18.774;2023-02-28T04:57:19;98511.09;;;-0.37;74.63
41044;BME280;51680;49.806;18.774;2023-02-28T05:00:21;98515.38;;;-0.35;74.38
41044;BME280;51680;49.806;18.774;2023-02-28T05:03:23;98509.41;;;-0.41;74.69
41044;BME280;51680;49.806;18.774;2023-02-28T05:06:27;98511.94;;;-0.37;74.11
41044;BME280;51680;49.806;18.774;2023-02-28T05:09:31;98517.97;;;-0.54;74.69
41044;BME280;51680;49.806;18.774;2023-02-28T05:12:34;98515.44;;;-0.62;74.42
41044;BME280;51680;49.806;18.774;2023-02-28T05:15:36;98515.47;;;-0.65;74.30
41044;BME280;51680;49.806;18.774;2023-02-28T05:18:37;98509.47;;;-0.68;73.59
41044;BME280;51680;49.806;18.774;2023-02-28T05:21:40;98515.47;;;-0.65;73.41
41044;BME280;51680;49.806;18.774;2023-02-28T05:24:44;98518.84;;;-0.54;72.85
41044;BME280;51680;49.806;18.774;2023-02-28T05:27:45;98525.66;;;-0.42;72.66
41044;BME280;51680;49.806;18.774;2023-02-28T05:30:47;98531.59;;;-0.28;72.68
41044;BME280;51680;49.806;18.774;2023-02-28T05:33:49;98525.53;;;-0.11;72.05
41044;BME280;51680;49.806;18.774;2023-02-28T05:36:51;98521.22;;;-0.07;72.35
41044;BME280;51680;49.806;18.774;2023-02-28T05:39:54;98539.19;;;-0.10;72.68
41044;BME280;51680;49.806;18.774;2023-02-28T05:42:56;98542.59;;;-0.05;72.55
41044;BME280;51680;49.806;18.774;2023-02-28T05:45:58;98542.56;;;0.04;72.58
41044;BME280;51680;49.806;18.774;2023-02-28T05:49:00;98550.25;;;0.10;72.54
41044;BME280;51680;49.806;18.774;2023-02-28T05:52:02;98544.22;;;0.17;72.70
41044;BME280;51680;49.806;18.774;2023-02-28T05:55:06;98557.06;;;0.20;72.43
41044;BME280;51680;49.806;18.774;2023-02-28T05:58:08;98559.63;;;0.17;72.63
41044;BME280;51680;49.806;18.774;2023-02-28T06:01:25;98563.94;;;0.15;73.69
41044;BME280;51680;49.806;18.774;2023-02-28T06:04:31;98577.66;;;0.05;73.85
41044;BME280;51680;49.806;18.774;2023-02-28T06:07:33;98568.25;;;-0.04;74.21
41044;BME280;51680;49.806;18.774;2023-02-28T06:10:36;98581.09;;;0.03;74.15
41044;BME280;51680;49.806;18.774;2023-02-28T06:13:58;98585.34;;;0.03;74.35
41044;BME280;51680;49.806;18.774;2023-02-28T06:17:01;98581.91;;;0.06;73.94
41044;BME280;51680;49.806;18.774;2023-02-28T06:20:04;98588.75;;;0.08;73.89
41044;BME280;51680;49.806;18.774;2023-02-28T06:23:06;98581.03;;;0.14;73.71
41044;BME280;51680;49.806;18.774;2023-02-28T06:26:09;98587.00;;;0.19;73.66
41044;BME280;51680;49.806;18.774;2023-02-28T06:29:11;98588.72;;;0.13;74.08
41044;BME280;51680;49.806;18.774;2023-02-28T06:32:13;98587.03;;;0.10;74.49
41044;BME280;51680;49.806;18.774;2023-02-28T06:35:15;98599.06;;;-0.10;75.91
41044;BME280;51680;49.806;18.774;2023-02-28T06:38:17;98599.09;;;-0.17;76.25
41044;BME280;51680;49.806;18.774;2023-02-28T06:41:21;98587.94;;;-0.10;75.14
41044;BME280;51680;49.806;18.774;2023-02-28T06:44:23;98588.84;;;-0.28;77.57
41044;BME280;51680;49.806;18.774;2023-02-28T06:47:25;98593.97;;;-0.17;75.93
41044;BME280;51680;49.806;18.774;2023-02-28T06:50:27;98593.97;;;-0.14;76.13
41044;BME280;51680;49.806;18.774;2023-02-28T06:53:30;98597.34;;;-0.05;75.98
41044;BME280;51680;49.806;18.774;2023-02-28T06:56:33;98598.19;;;0.02;75.51
41044;BME280;51680;49.806;18.774;2023-02-28T06:59:35;98594.69;;;0.21;74.93
41044;BME280;51680;49.806;18.774;2023-02-28T07:02:37;98592.09;;;0.28;74.61
41044;BME280;51680;49.806;18.774;2023-02-28T07:05:39;98597.97;;;0.47;74.32
41044;BME280;51680;49.806;18.774;2023-02-28T07:08:41;98594.50;;;0.58;73.58
41044;BME280;51680;49.806;18.774;2023-02-28T07:11:45;98602.94;;;0.82;72.70
41044;BME280;51680;49.806;18.774;2023-02-28T07:14:46;98613.34;;;0.59;75.36
41044;BME280;51680;49.806;18.774;2023-02-28T07:17:48;98607.97;;;0.95;73.06
41044;BME280;51680;49.806;18.774;2023-02-28T07:20:51;98604.34;;;1.23;72.18
41044;BME280;51680;49.806;18.774;2023-02-28T07:23:53;98598.22;;;1.39;71.72
41044;BME280;51680;49.806;18.774;2023-02-28T07:26:56;98604.78;;;1.67;71.02
41044;BME280;51680;49.806;18.774;2023-02-28T07:29:58;98604.41;;;2.06;69.89
41044;BME280;51680;49.806;18.774;2023-02-28T07:33:01;98611.66;;;2.44;68.28
41044;BME280;51680;49.806;18.774;2023-02-28T07:36:06;98603.09;;;3.04;67.37
41044;BME280;51680;49.806;18.774;2023-02-28T07:39:27;98603.47;;;4.28;64.93
41044;BME280;51680;49.806;18.774;2023-02-28T07:42:30;98596.00;;;6.00;60.36
41044;BME280;51680;49.806;18.774;2023-02-28T07:45:32;98595.72;;;6.99;57.30
41044;BME280;51680;49.806;18.774;2023-02-28T07:48:34;98590.34;;;7.31;56.43
41044;BME280;51680;49.806;18.774;2023-02-28T07:51:36;98586.97;;;7.81;54.49
41044;BME280;51680;49.806;18.774;2023-02-28T07:54:38;98581.59;;;9.25;51.65
41044;BME280;51680;49.806;18.774;2023-02-28T07:57:41;98573.03;;;10.82;47.69
41044;BME280;51680;49.806;18.774;2023-02-28T08:00:43;98567.94;;;12.36;45.03
41044;BME280;51680;49.806;18.774;2023-02-28T08:04:04;98573.06;;;14.08;42.50
41044;BME280;51680;49.806;18.774;2023-02-28T08:07:06;98559.88;;;14.94;38.32
41044;BME280;51680;49.806;18.774;2023-02-28T08:10:09;98562.72;;;14.35;38.19
41044;BME280;51680;49.806;18.774;2023-02-28T08:13:12;98572.56;;;15.01;37.55
41044;BME280;51680;49.806;18.774;2023-02-28T08:16:14;98566.88;;;15.35;37.60
41044;BME280;51680;49.806;18.774;2023-02-28T08:19:21;98575.31;;;16.06;36.25
41044;BME280;51680;49.806;18.774;2023-02-28T08:22:41;98566.59;;;16.30;35.52
41044;BME280;51680;49.806;18.774;2023-02-28T08:25:44;98566.94;;;16.76;34.81
41044;BME280;51680;49.806;18.774;2023-02-28T08:28:47;98576.94;;;16.21;29.19
41044;BME280;51680;49.806;18.774;2023-02-28T08:31:49;98575.59;;;16.53;33.10
41044;BME280;51680;49.806;18.774;2023-02-28T08:34:51;98585.63;;;14.75;27.26
41044;BME280;51680;49.806;18.774;2023-02-28T08:37:52;98591.84;;;13.87;32.69
41044;BME280;51680;49.806;18.774;2023-02-28T08:40:57;98584.38;;;14.38;32.48
41044;BME280;51680;49.806;18.774;2023-02-28T08:44:00;98571.22;;;15.36;31.57
41044;BME280;51680;49.806;18.774;2023-02-28T08:47:03;98572.63;;;15.81;32.30
41044;BME280;51680;49.806;18.774;2023-02-28T08:50:05;98563.06;;;16.05;29.74
41044;BME280;51680;49.806;18.774;2023-02-28T08:53:07;98577.13;;;13.84;31.92
41044;BME280;51680;49.806;18.774;2023-02-28T08:56:11;98572.91;;;13.21;32.64
41044;BME280;51680;49.806;18.774;2023-02-28T08:59:15;98576.41;;;12.89;32.08
41044;BME280;51680;49.806;18.774;2023-02-28T09:02:17;98568.19;;;14.16;31.88
41044;BME280;51680;49.806;18.774;2023-02-28T09:05:37;98571.00;;;12.92;32.97
41044;BME280;51680;49.806;18.774;2023-02-28T09:08:39;98585.81;;;11.60;30.52
41044;BME280;51680;49.806;18.774;2023-02-28T09:11:41;98567.38;;;13.10;33.68
41044;BME280;51680;49.806;18.774;2023-02-28T09:14:44;98571.22;;;12.07;33.08
41044;BME280;51680;49.806;18.774;2023-02-28T09:17:46;98563.72;;;13.59;33.85
41044;BME280;51680;49.806;18.774;2023-02-28T09:20:48;98568.25;;;15.00;32.50
41044;BME280;51680;49.806;18.774;2023-02-28T09:24:38;98561.00;;;13.90;28.79
41044;BME280;51680;49.806;18.774;2023-02-28T09:27:39;98551.91;;;14.95;32.10
41044;BME280;51680;49.806;18.774;2023-02-28T09:30:44;98556.25;;;15.63;30.23
41044;BME280;51680;49.806;18.774;2023-02-28T09:33:46;98558.78;;;15.65;31.06
41044;BME280;51680;49.806;18.774;2023-02-28T09:36:48;98567.03;;;16.24;30.63
41044;BME280;51680;49.806;18.774;2023-02-28T09:39:51;98557.59;;;17.08;29.84
41044;BME280;51680;49.806;18.774;2023-02-28T09:42:55;98553.09;;;17.33;27.61
41044;BME280;51680;49.806;18.774;2023-02-28T09:46:05;98563.28;;;17.14;27.29
41044;BME280;51680;49.806;18.774;2023-02-28T09:49:11;98570.66;;;15.84;27.03
41044;BME280;51680;49.806;18.774;2023-02-28T09:52:17;98567.78;;;16.89;29.48
41044;BME280;51680;49.806;18.774;2023-02-28T09:55:22;98551.75;;;17.51;29.23
41044;BME280;51680;49.806;18.774;2023-02-28T09:58:33;98567.59;;;15.51;25.90
41044;BME280;51680;49.806;18.774;2023-02-28T10:01:42;98567.59;;;14.83;28.52
41044;BME280;51680;49.806;18.774;2023-02-28T10:04:48;98560.84;;;14.93;28.62
41044;BME280;51680;49.806;18.774;2023-02-28T10:08:02;98565.56;;;15.81;27.84
41044;BME280;51680;49.806;18.774;2023-02-28T10:11:07;98555.94;;;17.30;29.61
41044;BME280;51680;49.806;18.774;2023-02-28T10:14:14;98557.41;;;18.16;28.15
41044;BME280;51680;49.806;18.774;2023-02-28T10:17:21;98553.19;;;17.44;26.98
41044;BME280;51680;49.806;18.774;2023-02-28T10:20:24;98558.16;;;17.83;28.28
41044;BME280;51680;49.806;18.774;2023-02-28T10:23:34;98551.06;;;18.86;26.92
41044;BME280;51680;49.806;18.774;2023-02-28T10:26:37;98549.72;;;18.70;28.21
41044;BME280;51680;49.806;18.774;2023-02-28T10:29:40;98545.41;;;19.02;27.04
41044;BME280;51680;49.806;18.774;2023-02-28T10:32:50;98550.66;;;18.47;25.43
41044;BME280;51680;49.806;18.774;2023-02-28T10:35:54;98560.91;;;15.72;28.13
41044;BME280;51680;49.806;18.774;2023-02-28T10:38:55;98557.91;;;16.42;28.87
41044;BME280;51680;49.806;18.774;2023-02-28T10:41:57;98553.78;;;17.12;28.85
41044;BME280;51680;49.806;18.774;2023-02-28T10:45:11;98551.44;;;17.56;25.52
41044;BME280;51680;49.806;18.774;2023-02-28T10:48:29;98536.53;;;17.78;24.79
41044;BME280;51680;49.806;18.774;2023-02-28T10:51:36;98534.63;;;17.57;25.38
41044;BME280;51680;49.806;18.774;2023-02-28T10:54:38;98538.47;;;16.68;28.58
41044;BME280;51680;49.806;18.774;2023-02-28T10:57:41;98530.03;;;16.63;29.04
41044;BME280;51680;49.806;18.774;2023-02-28T11:00:43;98529.72;;;15.66;29.64
41044;BME280;51680;49.806;18.774;2023-02-28T11:03:46;98527.75;;;13.91;30.61
41044;BME280;51680;49.806;18.774;2023-02-28T11:06:56;98535.31;;;12.09;31.36
41044;BME280;51680;49.806;18.774;2023-02-28T11:09:58;98538.09;;;10.84;34.44
41044;BME280;51680;49.806;18.774;2023-02-28T11:13:01;98537.81;;;9.95;35.86
41044;BME280;51680;49.806;18.774;2023-02-28T11:16:06;98520.38;;;9.14;37.47
41044;BME280;51680;49.806;18.774;2023-02-28T11:19:18;98526.84;;;8.38;37.87
41044;BME280;51680;49.806;18.774;2023-02-28T11:22:25;98531.00;;;7.45;40.15
41044;BME280;51680;49.806;18.774;2023-02-28T11:25:30;98528.47;;;7.18;40.74
41044;BME280;51680;49.806;18.774;2023-02-28T11:28:35;98525.63;;;6.99;41.22
41044;BME280;51680;49.806;18.774;2023-02-28T11:31:38;98519.56;;;6.73;42.07
41044;BME280;51680;49.806;18.774;2023-02-28T11:34:42;98522.72;;;6.53;42.02
41044;BME280;51680;49.806;18.774;2023-02-28T11:37:44;98538.81;;;6.35;43.15
41044;BME280;51680;49.806;18.774;2023-02-28T11:40:51;98515.75;;;6.26;43.94
41044;BME280;51680;49.806;18.774;2023-02-28T11:44:28;98518.09;;;6.05;45.02
41044;BME280;51680;49.806;18.774;2023-02-28T11:47:38;98522.56;;;6.00;44.85
41044;BME280;51680;49.806;18.774;2023-02-28T11:50:52;98520.16;;;5.94;44.90
41044;BME280;51680;49.806;18.774;2023-02-28T11:54:08;98524.38;;;5.64;45.51
41044;BME280;51680;49.806;18.774;2023-02-28T11:57:24;98522.63;;;5.66;45.55
41044;BME280;51680;49.806;18.774;2023-02-28T12:00:38;98525.84;;;5.74;46.43
41044;BME280;51680;49.806;18.774;2023-02-28T12:03:54;98530.00;;;5.80;46.38
41044;BME280;51680;49.806;18.774;2023-02-28T12:07:04;98518.00;;;5.77;46.16
41044;BME280;51680;49.806;18.774;2023-02-28T12:10:20;98520.81;;;5.68;46.08
41044;BME280;51680;49.806;18.774;2023-02-28T12:13:25;98518.47;;;5.59;46.21
41044;BME280;51680;49.806;18.774;2023-02-28T12:16:36;98507.25;;;5.60;46.44
41044;BME280;51680;49.806;18.774;2023-02-28T12:19:47;98502.38;;;5.48;46.60
41044;BME280;51680;49.806;18.774;2023-02-28T12:23:01;98504.81;;;5.53;46.63
41044;BME280;51680;49.806;18.774;2023-02-28T12:26:12;98503.06;;;5.55;47.65
41044;BME280;51680;49.806;18.774;2023-02-28T12:29:20;98511.59;;;5.58;47.15
41044;BME280;51680;49.806;18.774;2023-02-28T12:32:27;98502.31;;;5.51;47.48
41044;BME280;51680;49.806;18.774;2023-02-28T12:35:34;98508.66;;;5.40;47.72
41044;BME280;51680;49.806;18.774;2023-02-28T12:38:41;98504.47;;;5.34;47.44
41044;BME280;51680;49.806;18.774;2023-02-28T12:41:48;98513.28;;;5.27;47.58
41044;BME280;51680;49.806;18.774;2023-02-28T12:44:57;98510.75;;;5.24;48.57
41044;BME280;51680;49.806;18.774;2023-02-28T12:48:03;98502.19;;;5.22;47.99
41044;BME280;51680;49.806;18.774;2023-02-28T12:51:06;98516.16;;;5.15;48.26
41044;BME280;51680;49.806;18.774;2023-02-28T12:54:16;98510.09;;;5.16;48.88
41044;BME280;51680;49.806;18.774;2023-02-28T12:57:27;98516.75;;;5.26;48.86
41044;BME280;51680;49.806;18.774;2023-02-28T13:00:37;98508.34;;;5.18;48.89
41044;BME280;51680;49.806;18.774;2023-02-28T13:04:21;98505.06;;;5.10;49.83
41044;BME280;51680;49.806;18.774;2023-02-28T13:11:04;98490.09;;;5.23;49.47
41044;BME280;51680;49.806;18.774;2023-02-28T13:14:19;98492.72;;;5.21;49.88
41044;BME280;51680;49.806;18.774;2023-02-28T13:17:22;98493.78;;;5.14;48.60
41044;BME280;51680;49.806;18.774;2023-02-28T13:20:34;98498.16;;;5.12;49.45
41044;BME280;51680;49.806;18.774;2023-02-28T13:23:57;98485.22;;;5.12;49.64
41044;BME280;51680;49.806;18.774;2023-02-28T13:27:35;98486.94;;;5.12;50.03
41044;BME280;51680;49.806;18.774;2023-02-28T13:31:00;98487.00;;;5.09;50.34
41044;BME280;51680;49.806;18.774;2023-02-28T13:34:13;98478.44;;;5.07;49.99
41044;BME280;51680;49.806;18.774;2023-02-28T13:37:34;98476.84;;;5.01;50.33
41044;BME280;51680;49.806;18.774;2023-02-28T13:40:36;98501.97;;;4.96;50.07
41044;BME280;51680;49.806;18.774;2023-02-28T13:44:01;98487.94;;;4.70;51.25
41044;BME280;51680;49.806;18.774;2023-02-28T13:47:21;98487.63;;;4.83;51.26
41044;BME280;51680;49.806;18.774;2023-02-28T13:50:31;98476.97;;;4.97;50.51
41044;BME280;51680;49.806;18.774;2023-02-28T13:53:59;98471.94;;;4.91;50.00
41044;BME280;51680;49.806;18.774;2023-02-28T13:57:15;98469.16;;;4.98;50.33
41044;BME280;51680;49.806;18.774;2023-02-28T14:00:28;98472.56;;;5.00;49.75
41044;BME280;51680;49.806;18.774;2023-02-28T14:03:52;98462.22;;;5.00;50.21
41044;BME280;51680;49.806;18.774;2023-02-28T14:06:58;98464.56;;;5.09;49.47
41044;BME280;51680;49.806;18.774;2023-02-28T14:10:03;98455.31;;;5.01;49.67
41044;BME280;51680;49.806;18.774;2023-02-28T14:16:38;98460.47;;;5.01;49.83
41044;BME280;51680;49.806;18.774;2023-02-28T14:19:45;98456.47;;;4.89;49.74
41044;BME280;51680;49.806;18.774;2023-02-28T14:22:54;98452.41;;;4.79;49.72
41044;BME280;51680;49.806;18.774;2023-02-28T14:26:03;98462.69;;;4.81;49.97
41044;BME280;51680;49.806;18.774;2023-02-28T14:29:23;98449.75;;;4.81;49.89
41044;BME280;51680;49.806;18.774;2023-02-28T14:32:35;98458.19;;;4.89;50.11
41044;BME280;51680;49.806;18.774;2023-02-28T14:35:58;98444.28;;;4.93;49.62
41044;BME280;51680;49.806;18.774;2023-02-28T14:39:05;98444.38;;;4.88;49.52
41044;BME280;51680;49.806;18.774;2023-02-28T14:42:27;98450.44;;;4.87;49.80
41044;BME280;51680;49.806;18.774;2023-02-28T14:45:31;98456.53;;;4.86;49.76
41044;BME280;51680;49.806;18.774;2023-02-28T14:48:34;98456.16;;;4.66;50.09
41044;BME280;51680;49.806;18.774;2023-02-28T14:51:36;98448.41;;;4.66;49.53
41044;BME280;51680;49.806;18.774;2023-02-28T14:54:39;98442.38;;;4.66;50.31
41044;BME280;51680;49.806;18.774;2023-02-28T14:57:51;98466.50;;;4.66;51.04
41044;BME280;51680;49.806;18.774;2023-02-28T15:00:54;98463.03;;;4.66;50.28
41044;BME280;51680;49.806;18.774;2023-02-28T15:04:02;98468.34;;;4.61;50.31
41044;BME280;51680;49.806;18.774;2023-02-28T15:07:08;98467.50;;;4.59;50.36
41044;BME280;51680;49.806;18.774;2023-02-28T15:10:13;98459.81;;;4.58;50.19
41044;BME280;51680;49.806;18.774;2023-02-28T15:13:17;98459.09;;;4.51;50.54
41044;BME280;51680;49.806;18.774;2023-02-28T15:16:22;98460.03;;;4.49;50.16
41044;BME280;51680;49.806;18.774;2023-02-28T15:19:29;98455.78;;;4.46;50.32
41044;BME280;51680;49.806;18.774;2023-02-28T15:22:36;98457.53;;;4.44;50.17
41044;BME280;51680;49.806;18.774;2023-02-28T15:25:40;98467.06;;;4.42;50.11
41044;BME280;51680;49.806;18.774;2023-02-28T15:28:42;98461.13;;;4.39;50.29
41044;BME280;51680;49.806;18.774;2023-02-28T15:31:46;98459.38;;;4.39;50.64
41044;BME280;51680;49.806;18.774;2023-02-28T15:34:51;98461.13;;;4.39;50.42
41044;BME280;51680;49.806;18.774;2023-02-28T15:37:56;98452.47;;;4.40;50.39
41044;BME280;51680;49.806;18.774;2023-02-28T15:40:58;98449.53;;;4.17;51.24
41044;BME280;51680;49.806;18.774;2023-02-28T15:44:33;98455.47;;;4.22;51.49
41044;BME280;51680;49.806;18.774;2023-02-28T15:47:35;98457.09;;;4.26;51.33
41044;BME280;51680;49.806;18.774;2023-02-28T15:50:39;98462.25;;;4.27;51.02
41044;BME280;51680;49.806;18.774;2023-02-28T15:53:45;98461.50;;;4.22;50.96
41044;BME280;51680;49.806;18.774;2023-02-28T15:56:51;98460.78;;;4.14;51.10
41044;BME280;51680;49.806;18.774;2023-02-28T15:59:54;98466.91;;;4.10;51.03
41044;BME280;51680;49.806;18.774;2023-02-28T16:02:57;98466.94;;;4.09;51.04
41044;BME280;51680;49.806;18.774;2023-02-28T16:09:45;98481.09;;;3.90;51.75
41044;BME280;51680;49.806;18.774;2023-02-28T16:12:47;98473.53;;;3.82;51.71
41044;BME280;51680;49.806;18.774;2023-02-28T16:15:49;98478.84;;;3.73;52.18
41044;BME280;51680;49.806;18.774;2023-02-28T16:18:52;98473.66;;;3.76;52.01
41044;BME280;51680;49.806;18.774;2023-02-28T16:21:54;98473.59;;;3.79;52.36
41044;BME280;51680;49.806;18.774;2023-02-28T16:24:57;98481.34;;;3.79;52.29
41044;BME280;51680;49.806;18.774;2023-02-28T16:27:59;98476.19;;;3.78;52.45
41044;BME280;51680;49.806;18.774;2023-02-28T16:31:03;98480.59;;;3.74;52.84
41044;BME280;51680;49.806;18.774;2023-02-28T16:34:05;98486.72;;;3.67;53.15
41044;BME280;51680;49.806;18.774;2023-02-28T16:37:13;98473.94;;;3.61;53.23
41044;BME280;51680;49.806;18.774;2023-02-28T16:40:19;98480.81;;;3.62;53.29